Terminal Aerodrome Forecast
Issued by NWS

Home | Current Version | Previous Version | Text Only | Print | Product List | Glossary On
Versions: 1 2 3 4 5 6 7 8 9 10 11 12 13 14 15 16 17 18 19 20 21
000
FTUS45 KFGZ 251700 RRA
TAFGCN
TAF
KGCN 251742Z 2518/2618 23008G18KT 5SM -SHSN BKN030
      TEMPO 2518/2520 23015G25KT 3SM -SHSN BKN010 OVC030
     FM252100 27012G20KT P6SM SCT030 BKN060
     FM260000 28010KT P6SM SCT030 SCT100 PROB30 2606/2612 4SM -SHSN
      BKN015
     FM261200 VRB03KT P6SM FEW030=

USA.gov is the U.S. government's official web portal to all federal, state and local government web resources and services.